sensor_id;sensor_type;location;lat;lon;timestamp;P1;durP1;ratioP1;P2;durP2;ratioP2
6342;SDS011;3204;42.698;23.298;2023-06-10T00:01:39;8.20;;;7.60;;
6342;SDS011;3204;42.698;23.298;2023-06-10T00:04:05;9.00;;;7.53;;
6342;SDS011;3204;42.698;23.298;2023-06-10T00:06:31;7.88;;;7.22;;
6342;SDS011;3204;42.698;23.298;2023-06-10T00:09:04;8.23;;;7.68;;
6342;SDS011;3204;42.698;23.298;2023-06-10T00:11:30;7.68;;;7.10;;
6342;SDS011;3204;42.698;23.298;2023-06-10T00:13:59;8.07;;;7.47;;
6342;SDS011;3204;42.698;23.298;2023-06-10T00:16:25;8.60;;;7.90;;
6342;SDS011;3204;42.698;23.298;2023-06-10T00:18:50;8.00;;;7.40;;
6342;SDS011;3204;42.698;23.298;2023-06-10T00:21:16;8.60;;;8.00;;
6342;SDS011;3204;42.698;23.298;2023-06-10T00:23:42;8.80;;;8.10;;
6342;SDS011;3204;42.698;23.298;2023-06-10T00:26:08;8.93;;;8.20;;
6342;SDS011;3204;42.698;23.298;2023-06-10T00:28:34;8.63;;;7.93;;
6342;SDS011;3204;42.698;23.298;2023-06-10T00:31:00;7.97;;;7.38;;
6342;SDS011;3204;42.698;23.298;2023-06-10T00:33:27;8.52;;;7.85;;
6342;SDS011;3204;42.698;23.298;2023-06-10T00:35:53;8.32;;;7.53;;
6342;SDS011;3204;42.698;23.298;2023-06-10T00:38:18;8.63;;;7.95;;
6342;SDS011;3204;42.698;23.298;2023-06-10T00:40:43;8.38;;;7.68;;
6342;SDS011;3204;42.698;23.298;2023-06-10T00:43:09;8.88;;;8.00;;
6342;SDS011;3204;42.698;23.298;2023-06-10T00:45:35;8.38;;;7.65;;
6342;SDS011;3204;42.698;23.298;2023-06-10T00:48:00;10.63;;;9.60;;
6342;SDS011;3204;42.698;23.298;2023-06-10T00:50:27;12.13;;;10.95;;
6342;SDS011;3204;42.698;23.298;2023-06-10T00:52:53;15.23;;;13.98;;
6342;SDS011;3204;42.698;23.298;2023-06-10T00:55:19;14.07;;;12.68;;
6342;SDS011;3204;42.698;23.298;2023-06-10T00:57:45;12.85;;;11.68;;
6342;SDS011;3204;42.698;23.298;2023-06-10T01:00:13;12.00;;;11.00;;
6342;SDS011;3204;42.698;23.298;2023-06-10T01:02:40;13.13;;;11.98;;
6342;SDS011;3204;42.698;23.298;2023-06-10T01:05:06;10.82;;;9.88;;
6342;SDS011;3204;42.698;23.298;2023-06-10T01:07:36;10.82;;;9.98;;
6342;SDS011;3204;42.698;23.298;2023-06-10T01:13:00;70.13;;;45.17;;
6342;SDS011;3204;42.698;23.298;2023-06-10T01:15:28;81.43;;;48.22;;
6342;SDS011;3204;42.698;23.298;2023-06-10T01:17:56;29.65;;;24.20;;
6342;SDS011;3204;42.698;23.298;2023-06-10T01:20:23;18.92;;;16.92;;
6342;SDS011;3204;42.698;23.298;2023-06-10T01:22:49;16.77;;;13.25;;
6342;SDS011;3204;42.698;23.298;2023-06-10T01:25:16;13.02;;;11.77;;
6342;SDS011;3204;42.698;23.298;2023-06-10T01:27:42;11.65;;;10.63;;
6342;SDS011;3204;42.698;23.298;2023-06-10T01:30:13;11.48;;;10.40;;
6342;SDS011;3204;42.698;23.298;2023-06-10T01:32:48;10.88;;;10.20;;
6342;SDS011;3204;42.698;23.298;2023-06-10T01:35:16;14.60;;;10.38;;
6342;SDS011;3204;42.698;23.298;2023-06-10T01:37:44;12.63;;;11.25;;
6342;SDS011;3204;42.698;23.298;2023-06-10T01:40:11;12.80;;;11.68;;
6342;SDS011;3204;42.698;23.298;2023-06-10T01:42:38;16.25;;;14.52;;
6342;SDS011;3204;42.698;23.298;2023-06-10T01:45:04;15.30;;;13.77;;
6342;SDS011;3204;42.698;23.298;2023-06-10T01:47:30;13.52;;;12.27;;
6342;SDS011;3204;42.698;23.298;2023-06-10T01:49:56;11.77;;;10.88;;
6342;SDS011;3204;42.698;23.298;2023-06-10T01:52:21;12.02;;;10.73;;
6342;SDS011;3204;42.698;23.298;2023-06-10T01:54:47;13.43;;;9.85;;
6342;SDS011;3204;42.698;23.298;2023-06-10T01:57:13;10.98;;;9.93;;
6342;SDS011;3204;42.698;23.298;2023-06-10T01:59:38;9.00;;;8.30;;
6342;SDS011;3204;42.698;23.298;2023-06-10T02:02:04;8.93;;;8.38;;
6342;SDS011;3204;42.698;23.298;2023-06-10T02:04:30;9.55;;;8.77;;
6342;SDS011;3204;42.698;23.298;2023-06-10T02:06:55;8.43;;;7.78;;
6342;SDS011;3204;42.698;23.298;2023-06-10T02:09:21;9.10;;;8.50;;
6342;SDS011;3204;42.698;23.298;2023-06-10T02:11:47;9.70;;;8.90;;
6342;SDS011;3204;42.698;23.298;2023-06-10T02:14:13;8.95;;;8.45;;
6342;SDS011;3204;42.698;23.298;2023-06-10T02:16:39;9.60;;;8.80;;
6342;SDS011;3204;42.698;23.298;2023-06-10T02:19:05;8.85;;;8.15;;
6342;SDS011;3204;42.698;23.298;2023-06-10T02:21:31;9.25;;;8.48;;
6342;SDS011;3204;42.698;23.298;2023-06-10T02:23:59;9.32;;;8.55;;
6342;SDS011;3204;42.698;23.298;2023-06-10T02:26:25;9.10;;;8.27;;
6342;SDS011;3204;42.698;23.298;2023-06-10T02:28:51;8.50;;;7.93;;
6342;SDS011;3204;42.698;23.298;2023-06-10T02:31:16;8.27;;;7.68;;
6342;SDS011;3204;42.698;23.298;2023-06-10T02:33:42;8.13;;;7.63;;
6342;SDS011;3204;42.698;23.298;2023-06-10T02:36:09;9.05;;;8.45;;
6342;SDS011;3204;42.698;23.298;2023-06-10T02:38:38;8.73;;;8.00;;
6342;SDS011;3204;42.698;23.298;2023-06-10T02:41:06;8.82;;;8.10;;
6342;SDS011;3204;42.698;23.298;2023-06-10T02:43:32;9.48;;;8.32;;
6342;SDS011;3204;42.698;23.298;2023-06-10T02:45:57;9.50;;;8.80;;
6342;SDS011;3204;42.698;23.298;2023-06-10T02:48:23;8.75;;;8.13;;
6342;SDS011;3204;42.698;23.298;2023-06-10T02:50:49;8.90;;;8.25;;
6342;SDS011;3204;42.698;23.298;2023-06-10T02:53:15;8.88;;;8.38;;
6342;SDS011;3204;42.698;23.298;2023-06-10T02:55:41;9.48;;;8.77;;
6342;SDS011;3204;42.698;23.298;2023-06-10T02:58:07;11.23;;;9.10;;
6342;SDS011;3204;42.698;23.298;2023-06-10T03:00:33;8.93;;;8.32;;
6342;SDS011;3204;42.698;23.298;2023-06-10T03:02:58;9.18;;;8.48;;
6342;SDS011;3204;42.698;23.298;2023-06-10T03:05:27;9.40;;;8.52;;
6342;SDS011;3204;42.698;23.298;2023-06-10T03:07:53;9.70;;;8.73;;
6342;SDS011;3204;42.698;23.298;2023-06-10T03:10:19;11.23;;;9.02;;
6342;SDS011;3204;42.698;23.298;2023-06-10T03:12:44;10.35;;;9.63;;
6342;SDS011;3204;42.698;23.298;2023-06-10T03:15:10;9.70;;;8.98;;
6342;SDS011;3204;42.698;23.298;2023-06-10T03:17:35;9.88;;;9.18;;
6342;SDS011;3204;42.698;23.298;2023-06-10T03:20:01;10.48;;;9.52;;
6342;SDS011;3204;42.698;23.298;2023-06-10T03:22:28;11.68;;;10.70;;
6342;SDS011;3204;42.698;23.298;2023-06-10T03:24:54;10.15;;;9.40;;
6342;SDS011;3204;42.698;23.298;2023-06-10T03:27:20;10.15;;;9.40;;
6342;SDS011;3204;42.698;23.298;2023-06-10T03:29:45;11.15;;;10.23;;
6342;SDS011;3204;42.698;23.298;2023-06-10T03:32:11;11.40;;;10.38;;
6342;SDS011;3204;42.698;23.298;2023-06-10T03:34:36;10.32;;;9.73;;
6342;SDS011;3204;42.698;23.298;2023-06-10T03:37:02;9.73;;;9.10;;
6342;SDS011;3204;42.698;23.298;2023-06-10T03:39:28;10.68;;;9.93;;
6342;SDS011;3204;42.698;23.298;2023-06-10T03:41:54;10.77;;;9.88;;
6342;SDS011;3204;42.698;23.298;2023-06-10T03:44:21;10.88;;;9.93;;
6342;SDS011;3204;42.698;23.298;2023-06-10T03:46:46;11.85;;;10.75;;
6342;SDS011;3204;42.698;23.298;2023-06-10T03:49:12;11.52;;;10.52;;
6342;SDS011;3204;42.698;23.298;2023-06-10T03:51:38;10.68;;;9.70;;
6342;SDS011;3204;42.698;23.298;2023-06-10T03:54:03;10.85;;;9.98;;
6342;SDS011;3204;42.698;23.298;2023-06-10T03:56:29;11.82;;;10.43;;
6342;SDS011;3204;42.698;23.298;2023-06-10T03:58:56;11.25;;;10.35;;
6342;SDS011;3204;42.698;23.298;2023-06-10T04:01:22;11.25;;;10.10;;
6342;SDS011;3204;42.698;23.298;2023-06-10T04:03:48;11.05;;;10.15;;
6342;SDS011;3204;42.698;23.298;2023-06-10T04:06:16;10.93;;;9.52;;
6342;SDS011;3204;42.698;23.298;2023-06-10T04:08:42;10.40;;;9.68;;
6342;SDS011;3204;42.698;23.298;2023-06-10T04:11:08;9.43;;;8.75;;
6342;SDS011;3204;42.698;23.298;2023-06-10T04:13:33;10.02;;;9.00;;
6342;SDS011;3204;42.698;23.298;2023-06-10T04:15:59;13.07;;;9.60;;
6342;SDS011;3204;42.698;23.298;2023-06-10T04:18:25;10.18;;;9.38;;
6342;SDS011;3204;42.698;23.298;2023-06-10T04:20:50;10.25;;;8.90;;
6342;SDS011;3204;42.698;23.298;2023-06-10T04:23:16;10.02;;;9.23;;
6342;SDS011;3204;42.698;23.298;2023-06-10T04:25:42;9.23;;;8.38;;
6342;SDS011;3204;42.698;23.298;2023-06-10T04:28:07;9.57;;;8.82;;
6342;SDS011;3204;42.698;23.298;2023-06-10T04:30:33;10.02;;;9.27;;
6342;SDS011;3204;42.698;23.298;2023-06-10T04:32:58;10.07;;;8.32;;
6342;SDS011;3204;42.698;23.298;2023-06-10T04:35:24;10.02;;;9.07;;
6342;SDS011;3204;42.698;23.298;2023-06-10T04:37:52;10.27;;;9.50;;
6342;SDS011;3204;42.698;23.298;2023-06-10T04:40:18;11.48;;;9.57;;
6342;SDS011;3204;42.698;23.298;2023-06-10T04:42:44;10.10;;;8.90;;
6342;SDS011;3204;42.698;23.298;2023-06-10T04:45:10;9.05;;;8.40;;
6342;SDS011;3204;42.698;23.298;2023-06-10T04:47:35;8.88;;;8.27;;
6342;SDS011;3204;42.698;23.298;2023-06-10T04:50:01;9.75;;;8.90;;
6342;SDS011;3204;42.698;23.298;2023-06-10T04:52:26;8.55;;;8.00;;
6342;SDS011;3204;42.698;23.298;2023-06-10T04:54:52;8.20;;;7.78;;
6342;SDS011;3204;42.698;23.298;2023-06-10T04:57:18;9.35;;;8.52;;
6342;SDS011;3204;42.698;23.298;2023-06-10T04:59:45;9.35;;;8.55;;
6342;SDS011;3204;42.698;23.298;2023-06-10T05:02:11;9.50;;;8.40;;
6342;SDS011;3204;42.698;23.298;2023-06-10T05:04:36;9.13;;;8.38;;
6342;SDS011;3204;42.698;23.298;2023-06-10T05:07:01;9.00;;;8.27;;
6342;SDS011;3204;42.698;23.298;2023-06-10T05:09:27;10.25;;;9.55;;
6342;SDS011;3204;42.698;23.298;2023-06-10T05:11:52;10.60;;;9.63;;
6342;SDS011;3204;42.698;23.298;2023-06-10T05:14:18;9.82;;;8.98;;
6342;SDS011;3204;42.698;23.298;2023-06-10T05:16:45;12.55;;;8.85;;
6342;SDS011;3204;42.698;23.298;2023-06-10T05:19:11;10.52;;;9.63;;
6342;SDS011;3204;42.698;23.298;2023-06-10T05:21:37;10.80;;;9.65;;
6342;SDS011;3204;42.698;23.298;2023-06-10T05:24:02;10.25;;;9.23;;
6342;SDS011;3204;42.698;23.298;2023-06-10T05:26:28;9.80;;;8.95;;
6342;SDS011;3204;42.698;23.298;2023-06-10T05:28:56;9.40;;;8.52;;
6342;SDS011;3204;42.698;23.298;2023-06-10T05:31:21;10.10;;;9.23;;
6342;SDS011;3204;42.698;23.298;2023-06-10T05:33:47;10.60;;;9.05;;
6342;SDS011;3204;42.698;23.298;2023-06-10T05:36:12;10.18;;;9.18;;
6342;SDS011;3204;42.698;23.298;2023-06-10T05:38:38;10.65;;;9.57;;
6342;SDS011;3204;42.698;23.298;2023-06-10T05:41:03;10.63;;;9.77;;
6342;SDS011;3204;42.698;23.298;2023-06-10T05:43:29;10.77;;;9.88;;
6342;SDS011;3204;42.698;23.298;2023-06-10T05:45:54;11.75;;;9.85;;
6342;SDS011;3204;42.698;23.298;2023-06-10T05:48:20;10.75;;;9.95;;
6342;SDS011;3204;42.698;23.298;2023-06-10T05:50:45;9.45;;;8.57;;
6342;SDS011;3204;42.698;23.298;2023-06-10T05:53:13;13.48;;;9.68;;
6342;SDS011;3204;42.698;23.298;2023-06-10T05:55:41;10.07;;;9.15;;
6342;SDS011;3204;42.698;23.298;2023-06-10T05:58:10;10.88;;;9.40;;
6342;SDS011;3204;42.698;23.298;2023-06-10T06:00:37;9.88;;;9.02;;
6342;SDS011;3204;42.698;23.298;2023-06-10T06:03:07;10.50;;;8.93;;
6342;SDS011;3204;42.698;23.298;2023-06-10T06:05:36;10.85;;;8.40;;
6342;SDS011;3204;42.698;23.298;2023-06-10T06:08:06;9.43;;;8.85;;
6342;SDS011;3204;42.698;23.298;2023-06-10T06:10:32;9.82;;;9.05;;
6342;SDS011;3204;42.698;23.298;2023-06-10T06:12:58;9.95;;;9.00;;
6342;SDS011;3204;42.698;23.298;2023-06-10T06:15:23;11.95;;;9.07;;
6342;SDS011;3204;42.698;23.298;2023-06-10T06:17:49;9.50;;;8.40;;
6342;SDS011;3204;42.698;23.298;2023-06-10T06:20:17;11.77;;;9.20;;
6342;SDS011;3204;42.698;23.298;2023-06-10T06:22:43;13.18;;;12.07;;
6342;SDS011;3204;42.698;23.298;2023-06-10T06:25:09;11.90;;;10.75;;
6342;SDS011;3204;42.698;23.298;2023-06-10T06:27:35;10.32;;;9.52;;
6342;SDS011;3204;42.698;23.298;2023-06-10T06:30:00;10.65;;;9.70;;
6342;SDS011;3204;42.698;23.298;2023-06-10T06:32:25;10.35;;;9.02;;
6342;SDS011;3204;42.698;23.298;2023-06-10T06:34:52;9.57;;;8.77;;
6342;SDS011;3204;42.698;23.298;2023-06-10T06:37:22;11.43;;;10.32;;
6342;SDS011;3204;42.698;23.298;2023-06-10T06:39:51;10.25;;;9.45;;
6342;SDS011;3204;42.698;23.298;2023-06-10T06:42:17;9.85;;;8.45;;
6342;SDS011;3204;42.698;23.298;2023-06-10T06:44:43;10.43;;;9.00;;
6342;SDS011;3204;42.698;23.298;2023-06-10T06:47:09;9.35;;;8.40;;
6342;SDS011;3204;42.698;23.298;2023-06-10T06:49:35;7.50;;;7.00;;
6342;SDS011;3204;42.698;23.298;2023-06-10T06:52:00;7.53;;;7.03;;
6342;SDS011;3204;42.698;23.298;2023-06-10T06:54:26;7.45;;;6.82;;
6342;SDS011;3204;42.698;23.298;2023-06-10T06:56:51;13.10;;;7.75;;
6342;SDS011;3204;42.698;23.298;2023-06-10T06:59:17;10.10;;;8.13;;
6342;SDS011;3204;42.698;23.298;2023-06-10T07:01:44;9.32;;;8.18;;
6342;SDS011;3204;42.698;23.298;2023-06-10T07:04:10;8.90;;;8.20;;
6342;SDS011;3204;42.698;23.298;2023-06-10T07:06:36;10.07;;;8.32;;
6342;SDS011;3204;42.698;23.298;2023-06-10T07:09:03;8.23;;;7.45;;
6342;SDS011;3204;42.698;23.298;2023-06-10T07:11:28;9.48;;;8.45;;
6342;SDS011;3204;42.698;23.298;2023-06-10T07:13:54;9.10;;;8.60;;
6342;SDS011;3204;42.698;23.298;2023-06-10T07:16:20;8.95;;;8.18;;
6342;SDS011;3204;42.698;23.298;2023-06-10T07:18:46;9.13;;;8.30;;
6342;SDS011;3204;42.698;23.298;2023-06-10T07:21:12;8.35;;;7.82;;
6342;SDS011;3204;42.698;23.298;2023-06-10T07:23:37;8.02;;;7.32;;
6342;SDS011;3204;42.698;23.298;2023-06-10T07:26:07;8.30;;;7.70;;
6342;SDS011;3204;42.698;23.298;2023-06-10T07:28:32;8.55;;;7.07;;
6342;SDS011;3204;42.698;23.298;2023-06-10T07:30:58;7.88;;;7.07;;
6342;SDS011;3204;42.698;23.298;2023-06-10T07:33:23;6.28;;;5.78;;
6342;SDS011;3204;42.698;23.298;2023-06-10T07:35:49;7.75;;;5.60;;
6342;SDS011;3204;42.698;23.298;2023-06-10T07:38:16;6.63;;;6.03;;
6342;SDS011;3204;42.698;23.298;2023-06-10T07:40:42;20.95;;;6.68;;
6342;SDS011;3204;42.698;23.298;2023-06-10T07:43:08;6.75;;;5.70;;
6342;SDS011;3204;42.698;23.298;2023-06-10T07:45:33;6.55;;;6.10;;
6342;SDS011;3204;42.698;23.298;2023-06-10T07:47:58;6.65;;;5.72;;
6342;SDS011;3204;42.698;23.298;2023-06-10T07:50:24;6.40;;;5.97;;
6342;SDS011;3204;42.698;23.298;2023-06-10T07:52:49;7.93;;;5.63;;
6342;SDS011;3204;42.698;23.298;2023-06-10T07:55:15;6.00;;;5.47;;
6342;SDS011;3204;42.698;23.298;2023-06-10T07:57:40;5.53;;;4.75;;
6342;SDS011;3204;42.698;23.298;2023-06-10T08:00:06;5.75;;;5.13;;
6342;SDS011;3204;42.698;23.298;2023-06-10T08:02:32;5.72;;;5.22;;
6342;SDS011;3204;42.698;23.298;2023-06-10T08:04:57;5.78;;;5.35;;
6342;SDS011;3204;42.698;23.298;2023-06-10T08:07:23;5.95;;;4.93;;
6342;SDS011;3204;42.698;23.298;2023-06-10T08:09:48;5.70;;;5.35;;
6342;SDS011;3204;42.698;23.298;2023-06-10T08:12:14;5.55;;;5.10;;
6342;SDS011;3204;42.698;23.298;2023-06-10T08:14:40;4.93;;;4.63;;
6342;SDS011;3204;42.698;23.298;2023-06-10T08:17:05;4.50;;;4.20;;
6342;SDS011;3204;42.698;23.298;2023-06-10T08:19:31;5.10;;;4.47;;
6342;SDS011;3204;42.698;23.298;2023-06-10T08:21:57;5.53;;;4.88;;
6342;SDS011;3204;42.698;23.298;2023-06-10T08:24:22;10.35;;;5.18;;
6342;SDS011;3204;42.698;23.298;2023-06-10T08:26:48;6.45;;;4.68;;
6342;SDS011;3204;42.698;23.298;2023-06-10T08:29:13;4.50;;;4.30;;
6342;SDS011;3204;42.698;23.298;2023-06-10T08:31:42;4.63;;;4.18;;
6342;SDS011;3204;42.698;23.298;2023-06-10T08:34:08;5.53;;;4.05;;
6342;SDS011;3204;42.698;23.298;2023-06-10T08:36:34;4.55;;;4.13;;
6342;SDS011;3204;42.698;23.298;2023-06-10T08:39:00;4.40;;;4.20;;
6342;SDS011;3204;42.698;23.298;2023-06-10T08:41:26;4.75;;;4.32;;
6342;SDS011;3204;42.698;23.298;2023-06-10T08:46:21;5.20;;;4.80;;
6342;SDS011;3204;42.698;23.298;2023-06-10T08:48:47;10.30;;;4.45;;
6342;SDS011;3204;42.698;23.298;2023-06-10T08:51:17;4.47;;;4.07;;
6342;SDS011;3204;42.698;23.298;2023-06-10T08:53:50;4.68;;;4.28;;
6342;SDS011;3204;42.698;23.298;2023-06-10T08:56:25;4.47;;;4.07;;
6342;SDS011;3204;42.698;23.298;2023-06-10T08:58:53;4.90;;;4.18;;
6342;SDS011;3204;42.698;23.298;2023-06-10T09:01:20;4.30;;;4.10;;
6342;SDS011;3204;42.698;23.298;2023-06-10T09:03:46;4.47;;;4.18;;
6342;SDS011;3204;42.698;23.298;2023-06-10T09:06:13;4.30;;;4.10;;
6342;SDS011;3204;42.698;23.298;2023-06-10T09:08:38;4.20;;;3.90;;
6342;SDS011;3204;42.698;23.298;2023-06-10T09:11:04;4.38;;;3.53;;
6342;SDS011;3204;42.698;23.298;2023-06-10T09:13:30;3.92;;;3.72;;
6342;SDS011;3204;42.698;23.298;2023-06-10T09:15:55;3.65;;;3.33;;
6342;SDS011;3204;42.698;23.298;2023-06-10T09:18:25;4.10;;;3.88;;
6342;SDS011;3204;42.698;23.298;2023-06-10T09:20:50;5.45;;;5.00;;
6342;SDS011;3204;42.698;23.298;2023-06-10T09:23:16;5.68;;;5.28;;
6342;SDS011;3204;42.698;23.298;2023-06-10T09:25:42;4.82;;;4.22;;
6342;SDS011;3204;42.698;23.298;2023-06-10T09:28:14;4.70;;;4.40;;
6342;SDS011;3204;42.698;23.298;2023-06-10T09:30:40;4.53;;;4.00;;
6342;SDS011;3204;42.698;23.298;2023-06-10T09:33:12;4.80;;;4.35;;
6342;SDS011;3204;42.698;23.298;2023-06-10T09:35:47;7.03;;;4.18;;
6342;SDS011;3204;42.698;23.298;2023-06-10T09:38:14;4.53;;;4.28;;
6342;SDS011;3204;42.698;23.298;2023-06-10T09:40:54;5.72;;;5.22;;
6342;SDS011;3204;42.698;23.298;2023-06-10T09:43:20;5.03;;;4.30;;
6342;SDS011;3204;42.698;23.298;2023-06-10T09:45:49;4.55;;;4.35;;
6342;SDS011;3204;42.698;23.298;2023-06-10T09:48:17;4.82;;;4.50;;
6342;SDS011;3204;42.698;23.298;2023-06-10T09:50:44;4.47;;;4.15;;
6342;SDS011;3204;42.698;23.298;2023-06-10T09:53:10;5.32;;;4.05;;
6342;SDS011;3204;42.698;23.298;2023-06-10T09:55:37;4.07;;;3.78;;
6342;SDS011;3204;42.698;23.298;2023-06-10T09:58:03;3.70;;;3.50;;
6342;SDS011;3204;42.698;23.298;2023-06-10T10:00:31;4.20;;;4.00;;
6342;SDS011;3204;42.698;23.298;2023-06-10T10:02:57;3.92;;;3.72;;
6342;SDS011;3204;42.698;23.298;2023-06-10T10:05:23;3.78;;;3.58;;
6342;SDS011;3204;42.698;23.298;2023-06-10T10:07:49;3.67;;;3.58;;
6342;SDS011;3204;42.698;23.298;2023-06-10T10:10:16;3.47;;;3.22;;
6342;SDS011;3204;42.698;23.298;2023-06-10T10:12:42;3.08;;;2.88;;
6342;SDS011;3204;42.698;23.298;2023-06-10T10:15:09;3.40;;;3.20;;
6342;SDS011;3204;42.698;23.298;2023-06-10T10:17:37;2.53;;;2.42;;
6342;SDS011;3204;42.698;23.298;2023-06-10T10:20:26;4.65;;;2.42;;
6342;SDS011;3204;42.698;23.298;2023-06-10T10:22:55;2.55;;;2.45;;
6342;SDS011;3204;42.698;23.298;2023-06-10T10:25:32;2.90;;;2.80;;
6342;SDS011;3204;42.698;23.298;2023-06-10T10:30:26;3.13;;;2.92;;
6342;SDS011;3204;42.698;23.298;2023-06-10T10:32:57;3.13;;;2.90;;
6342;SDS011;3204;42.698;23.298;2023-06-10T10:35:30;3.15;;;3.03;;
6342;SDS011;3204;42.698;23.298;2023-06-10T10:37:57;3.15;;;2.95;;
6342;SDS011;3204;42.698;23.298;2023-06-10T10:40:23;3.40;;;3.10;;
6342;SDS011;3204;42.698;23.298;2023-06-10T10:42:50;2.95;;;2.80;;
6342;SDS011;3204;42.698;23.298;2023-06-10T10:45:17;3.42;;;3.25;;
6342;SDS011;3204;42.698;23.298;2023-06-10T10:47:46;22.40;;;4.30;;
6342;SDS011;3204;42.698;23.298;2023-06-10T10:50:18;4.90;;;3.38;;
6342;SDS011;3204;42.698;23.298;2023-06-10T10:52:53;5.10;;;4.35;;
6342;SDS011;3204;42.698;23.298;2023-06-10T10:55:19;3.30;;;3.10;;
6342;SDS011;3204;42.698;23.298;2023-06-10T10:57:44;3.00;;;2.90;;
6342;SDS011;3204;42.698;23.298;2023-06-10T11:00:27;2.88;;;2.60;;
6342;SDS011;3204;42.698;23.298;2023-06-10T11:03:04;3.85;;;3.55;;
6342;SDS011;3204;42.698;23.298;2023-06-10T11:08:09;2.85;;;2.75;;
6342;SDS011;3204;42.698;23.298;2023-06-10T11:10:36;5.65;;;5.25;;
6342;SDS011;3204;42.698;23.298;2023-06-10T11:13:09;3.72;;;3.42;;
6342;SDS011;3204;42.698;23.298;2023-06-10T11:15:39;5.07;;;4.72;;
6342;SDS011;3204;42.698;23.298;2023-06-10T11:20:45;5.80;;;4.20;;
6342;SDS011;3204;42.698;23.298;2023-06-10T11:23:38;4.15;;;3.85;;
6342;SDS011;3204;42.698;23.298;2023-06-10T11:26:15;4.05;;;3.83;;
6342;SDS011;3204;42.698;23.298;2023-06-10T11:29:03;3.72;;;3.50;;
6342;SDS011;3204;42.698;23.298;2023-06-10T11:33:54;4.05;;;3.83;;
6342;SDS011;3204;42.698;23.298;2023-06-10T11:36:21;4.20;;;4.00;;
6342;SDS011;3204;42.698;23.298;2023-06-10T11:38:47;4.10;;;3.90;;
6342;SDS011;3204;42.698;23.298;2023-06-10T11:41:13;4.35;;;4.15;;
6342;SDS011;3204;42.698;23.298;2023-06-10T11:43:45;4.40;;;4.10;;
6342;SDS011;3204;42.698;23.298;2023-06-10T11:46:12;5.95;;;4.00;;
6342;SDS011;3204;42.698;23.298;2023-06-10T11:48:38;4.50;;;4.10;;
6342;SDS011;3204;42.698;23.298;2023-06-10T11:51:06;4.00;;;3.80;;
6342;SDS011;3204;42.698;23.298;2023-06-10T11:53:33;5.53;;;4.40;;
6342;SDS011;3204;42.698;23.298;2023-06-10T11:55:59;4.20;;;3.88;;
6342;SDS011;3204;42.698;23.298;2023-06-10T11:58:24;4.18;;;3.97;;
6342;SDS011;3204;42.698;23.298;2023-06-10T12:00:53;4.25;;;3.85;;
6342;SDS011;3204;42.698;23.298;2023-06-10T12:03:23;4.68;;;3.50;;
6342;SDS011;3204;42.698;23.298;2023-06-10T12:06:04;4.60;;;3.70;;
6342;SDS011;3204;42.698;23.298;2023-06-10T12:08:31;3.97;;;3.67;;
6342;SDS011;3204;42.698;23.298;2023-06-10T12:10:57;3.90;;;3.60;;
6342;SDS011;3204;42.698;23.298;2023-06-10T12:13:25;4.45;;;3.45;;
6342;SDS011;3204;42.698;23.298;2023-06-10T12:15:52;3.58;;;3.38;;
6342;SDS011;3204;42.698;23.298;2023-06-10T12:18:24;3.92;;;3.63;;
6342;SDS011;3204;42.698;23.298;2023-06-10T12:20:50;3.47;;;3.22;;
6342;SDS011;3204;42.698;23.298;2023-06-10T12:23:16;3.90;;;3.70;;
6342;SDS011;3204;42.698;23.298;2023-06-10T12:25:52;6.75;;;4.68;;
6342;SDS011;3204;42.698;23.298;2023-06-10T12:28:23;4.38;;;3.55;;
6342;SDS011;3204;42.698;23.298;2023-06-10T12:30:49;3.63;;;3.35;;
6342;SDS011;3204;42.698;23.298;2023-06-10T12:33:18;4.35;;;3.65;;
6342;SDS011;3204;42.698;23.298;2023-06-10T12:35:49;3.70;;;3.50;;
6342;SDS011;3204;42.698;23.298;2023-06-10T12:38:22;3.25;;;3.05;;
6342;SDS011;3204;42.698;23.298;2023-06-10T12:40:49;3.50;;;3.30;;
6342;SDS011;3204;42.698;23.298;2023-06-10T12:43:19;4.90;;;4.18;;
6342;SDS011;3204;42.698;23.298;2023-06-10T12:45:46;5.10;;;3.75;;
6342;SDS011;3204;42.698;23.298;2023-06-10T12:48:17;3.50;;;3.30;;
6342;SDS011;3204;42.698;23.298;2023-06-10T12:50:44;3.50;;;3.30;;
6342;SDS011;3204;42.698;23.298;2023-06-10T12:53:12;4.88;;;4.57;;
6342;SDS011;3204;42.698;23.298;2023-06-10T12:55:38;3.97;;;3.60;;
6342;SDS011;3204;42.698;23.298;2023-06-10T12:58:03;3.78;;;3.50;;
6342;SDS011;3204;42.698;23.298;2023-06-10T13:00:29;9.40;;;4.18;;
6342;SDS011;3204;42.698;23.298;2023-06-10T13:02:56;3.72;;;3.42;;
6342;SDS011;3204;42.698;23.298;2023-06-10T13:05:22;3.75;;;3.45;;
6342;SDS011;3204;42.698;23.298;2023-06-10T13:07:47;4.25;;;3.70;;
6342;SDS011;3204;42.698;23.298;2023-06-10T13:10:14;3.45;;;3.15;;
6342;SDS011;3204;42.698;23.298;2023-06-10T13:12:41;3.88;;;3.55;;
6342;SDS011;3204;42.698;23.298;2023-06-10T13:15:07;8.82;;;4.10;;
6342;SDS011;3204;42.698;23.298;2023-06-10T13:17:33;9.00;;;4.00;;
6342;SDS011;3204;42.698;23.298;2023-06-10T13:20:04;4.40;;;3.95;;
6342;SDS011;3204;42.698;23.298;2023-06-10T13:22:31;6.15;;;4.65;;
6342;SDS011;3204;42.698;23.298;2023-06-10T13:25:01;4.60;;;4.40;;
6342;SDS011;3204;42.698;23.298;2023-06-10T13:27:28;7.13;;;4.45;;
6342;SDS011;3204;42.698;23.298;2023-06-10T13:29:53;6.85;;;4.43;;
6342;SDS011;3204;42.698;23.298;2023-06-10T13:32:19;5.97;;;4.43;;
6342;SDS011;3204;42.698;23.298;2023-06-10T13:34:44;5.72;;;4.57;;
6342;SDS011;3204;42.698;23.298;2023-06-10T13:37:10;6.55;;;4.72;;
6342;SDS011;3204;42.698;23.298;2023-06-10T13:39:37;8.80;;;4.90;;
6342;SDS011;3204;42.698;23.298;2023-06-10T13:42:03;6.53;;;5.07;;
6342;SDS011;3204;42.698;23.298;2023-06-10T13:44:29;5.30;;;4.70;;
6342;SDS011;3204;42.698;23.298;2023-06-10T13:46:58;5.40;;;5.00;;
6342;SDS011;3204;42.698;23.298;2023-06-10T13:49:24;5.07;;;4.60;;
6342;SDS011;3204;42.698;23.298;2023-06-10T13:51:50;5.22;;;4.82;;
6342;SDS011;3204;42.698;23.298;2023-06-10T13:54:15;5.38;;;5.07;;
6342;SDS011;3204;42.698;23.298;2023-06-10T13:56:41;5.28;;;4.97;;
6342;SDS011;3204;42.698;23.298;2023-06-10T13:59:06;7.75;;;6.07;;
6342;SDS011;3204;42.698;23.298;2023-06-10T14:01:32;5.65;;;5.25;;
6342;SDS011;3204;42.698;23.298;2023-06-10T14:03:57;6.40;;;5.53;;
6342;SDS011;3204;42.698;23.298;2023-06-10T14:06:23;8.55;;;6.47;;
6342;SDS011;3204;42.698;23.298;2023-06-10T14:08:48;6.28;;;5.88;;
6342;SDS011;3204;42.698;23.298;2023-06-10T14:11:14;6.55;;;6.05;;
6342;SDS011;3204;42.698;23.298;2023-06-10T14:13:40;8.50;;;5.40;;
6342;SDS011;3204;42.698;23.298;2023-06-10T14:16:05;5.82;;;5.18;;
6342;SDS011;3204;42.698;23.298;2023-06-10T14:18:31;5.80;;;5.50;;
6342;SDS011;3204;42.698;23.298;2023-06-10T14:20:56;5.95;;;5.45;;
6342;SDS011;3204;42.698;23.298;2023-06-10T14:23:22;5.93;;;5.53;;
6342;SDS011;3204;42.698;23.298;2023-06-10T14:25:48;5.05;;;4.75;;
6342;SDS011;3204;42.698;23.298;2023-06-10T14:28:14;6.35;;;5.70;;
6342;SDS011;3204;42.698;23.298;2023-06-10T14:30:39;5.28;;;4.80;;
6342;SDS011;3204;42.698;23.298;2023-06-10T14:33:05;6.45;;;5.30;;
6342;SDS011;3204;42.698;23.298;2023-06-10T14:35:31;5.18;;;4.68;;
6342;SDS011;3204;42.698;23.298;2023-06-10T14:37:56;5.38;;;4.85;;
6342;SDS011;3204;42.698;23.298;2023-06-10T14:40:22;6.88;;;5.30;;
6342;SDS011;3204;42.698;23.298;2023-06-10T14:42:49;5.32;;;4.90;;
6342;SDS011;3204;42.698;23.298;2023-06-10T14:45:15;5.00;;;4.70;;
6342;SDS011;3204;42.698;23.298;2023-06-10T14:47:40;5.05;;;4.65;;
6342;SDS011;3204;42.698;23.298;2023-06-10T14:50:06;4.30;;;4.10;;
6342;SDS011;3204;42.698;23.298;2023-06-10T14:52:32;5.25;;;4.85;;
6342;SDS011;3204;42.698;23.298;2023-06-10T14:54:57;5.00;;;4.78;;
6342;SDS011;3204;42.698;23.298;2023-06-10T14:57:23;4.63;;;4.30;;
6342;SDS011;3204;42.698;23.298;2023-06-10T14:59:48;4.50;;;4.30;;
6342;SDS011;3204;42.698;23.298;2023-06-10T15:02:14;5.25;;;4.75;;
6342;SDS011;3204;42.698;23.298;2023-06-10T15:04:39;4.63;;;4.20;;
6342;SDS011;3204;42.698;23.298;2023-06-10T15:07:05;5.10;;;4.60;;
6342;SDS011;3204;42.698;23.298;2023-06-10T15:09:30;5.00;;;4.50;;